Main page
METAR-TAF:

METAR-TAF

Airports :

Oxford Airport

Oxford, England

latitude: 51-50-13N, longitude: 1-19-12W, elevation: 82 m

Current weather observation

The report was made 2 hours and 2 minutes ago, at 21:20 UTC
Calm wind
Temperature 16°C
Humidity 59%
Pressure 1001 hPa
Visibility 10 km or more
no clouds below 1500 m and no cumulonimbus

METAR: EGTK 222120Z 00000KT CAVOK 16/08 Q1001

Time: 00:22 (23:22 UTC)

Forecast

The report was made 6 hours and 26 minutes ago, at 16:56 UTC
Forecast valid from 22 at 18 UTC to 22 at 22 UTC
Wind 7 kt from the East
Visibility 10 km or more
no clouds below 1500 m and no cumulonimbus
Probability 30%
from 22 at 18 UTC to 22 at 22 UTC
Visibility: 9000 m

TAF: EGTK 221656Z 2218/2222 09007KT CAVOK PROB30 2218/2222 9000

Weather observations and forecasts of more than 4000 airports (METAR and TAF reports).

The available stations are represented by yellow and red dots on the map.

Hover mouse over dot to see the name of the station.

Then click to see weather observations and forecasts.

To change the map : click on the green buttons with a black cross to zoom in, on the green button with a dash to zoom out, or on the green arrows for adjacent maps.


METAR-TAF: